sensor_id;sensor_type;location;lat;lon;timestamp;temperature;humidity
28175;SHT30;59417;44.788;10.334;2023-02-01T00:00:43;5.98;62.71
28175;SHT30;59417;44.788;10.334;2023-02-01T00:03:09;5.81;63.88
28175;SHT30;59417;44.788;10.334;2023-02-01T00:05:34;5.98;62.94
28175;SHT30;59417;44.788;10.334;2023-02-01T00:08:00;5.95;62.44
28175;SHT30;59417;44.788;10.334;2023-02-01T00:10:25;5.96;62.67
28175;SHT30;59417;44.788;10.334;2023-02-01T00:12:53;5.95;62.67
28175;SHT30;59417;44.788;10.334;2023-02-01T00:15:19;5.92;62.59
28175;SHT30;59417;44.788;10.334;2023-02-01T00:17:44;5.85;63.03
28175;SHT30;59417;44.788;10.334;2023-02-01T00:20:15;5.82;62.57
28175;SHT30;59417;44.788;10.334;2023-02-01T00:22:40;5.78;62.45
28175;SHT30;59417;44.788;10.334;2023-02-01T00:25:09;5.83;62.49
28175;SHT30;59417;44.788;10.334;2023-02-01T00:27:34;5.79;62.13
28175;SHT30;59417;44.788;10.334;2023-02-01T00:30:00;5.81;62.58
28175;SHT30;59417;44.788;10.334;2023-02-01T00:32:25;5.57;62.76
28175;SHT30;59417;44.788;10.334;2023-02-01T00:34:51;5.57;63.73
28175;SHT30;59417;44.788;10.334;2023-02-01T00:37:20;5.48;64.46
28175;SHT30;59417;44.788;10.334;2023-02-01T00:39:47;5.42;64.80
28175;SHT30;59417;44.788;10.334;2023-02-01T00:42:12;5.41;64.64
28175;SHT30;59417;44.788;10.334;2023-02-01T00:44:38;5.51;64.63
28175;SHT30;59417;44.788;10.334;2023-02-01T00:47:03;5.47;63.57
28175;SHT30;59417;44.788;10.334;2023-02-01T00:49:29;5.26;64.45
28175;SHT30;59417;44.788;10.334;2023-02-01T00:51:54;5.26;64.61
28175;SHT30;59417;44.788;10.334;2023-02-01T00:54:20;5.10;65.18
28175;SHT30;59417;44.788;10.334;2023-02-01T00:56:46;5.26;65.27
28175;SHT30;59417;44.788;10.334;2023-02-01T00:59:12;5.28;64.77
28175;SHT30;59417;44.788;10.334;2023-02-01T01:01:38;5.34;64.53
28175;SHT30;59417;44.788;10.334;2023-02-01T01:04:04;5.34;64.23
28175;SHT30;59417;44.788;10.334;2023-02-01T01:06:32;5.21;64.69
28175;SHT30;59417;44.788;10.334;2023-02-01T01:09:02;5.34;64.64
28175;SHT30;59417;44.788;10.334;2023-02-01T01:11:33;5.37;64.41
28175;SHT30;59417;44.788;10.334;2023-02-01T01:13:59;5.27;64.49
28175;SHT30;59417;44.788;10.334;2023-02-01T01:16:26;5.20;65.12
28175;SHT30;59417;44.788;10.334;2023-02-01T01:18:54;4.97;65.28
28175;SHT30;59417;44.788;10.334;2023-02-01T01:21:20;5.07;65.17
28175;SHT30;59417;44.788;10.334;2023-02-01T01:23:47;5.07;65.10
28175;SHT30;59417;44.788;10.334;2023-02-01T01:26:18;5.13;65.01
28175;SHT30;59417;44.788;10.334;2023-02-01T01:28:45;4.79;66.29
28175;SHT30;59417;44.788;10.334;2023-02-01T01:31:12;4.97;65.61
28175;SHT30;59417;44.788;10.334;2023-02-01T01:33:38;4.80;66.23
28175;SHT30;59417;44.788;10.334;2023-02-01T01:36:05;4.82;65.87
28175;SHT30;59417;44.788;10.334;2023-02-01T01:38:31;4.83;66.31
28175;SHT30;59417;44.788;10.334;2023-02-01T01:40:58;4.80;66.00
28175;SHT30;59417;44.788;10.334;2023-02-01T01:43:23;4.68;66.39
28175;SHT30;59417;44.788;10.334;2023-02-01T01:45:51;4.79;65.74
28175;SHT30;59417;44.788;10.334;2023-02-01T01:48:21;4.68;66.31
28175;SHT30;59417;44.788;10.334;2023-02-01T01:50:54;4.68;66.19
28175;SHT30;59417;44.788;10.334;2023-02-01T01:53:28;4.69;65.90
28175;SHT30;59417;44.788;10.334;2023-02-01T01:55:55;4.65;65.91
28175;SHT30;59417;44.788;10.334;2023-02-01T01:58:25;4.58;66.47
28175;SHT30;59417;44.788;10.334;2023-02-01T02:00:51;4.63;66.69
28175;SHT30;59417;44.788;10.334;2023-02-01T02:05:46;4.65;66.62
28175;SHT30;59417;44.788;10.334;2023-02-01T02:08:14;4.61;66.43
28175;SHT30;59417;44.788;10.334;2023-02-01T02:10:40;4.63;66.54
28175;SHT30;59417;44.788;10.334;2023-02-01T02:13:29;4.65;66.48
28175;SHT30;59417;44.788;10.334;2023-02-01T02:18:41;4.51;66.20
28175;SHT30;59417;44.788;10.334;2023-02-01T02:24:07;4.46;66.78
28175;SHT30;59417;44.788;10.334;2023-02-01T02:26:53;4.66;65.41
28175;SHT30;59417;44.788;10.334;2023-02-01T02:30:33;4.52;64.86
28175;SHT30;59417;44.788;10.334;2023-02-01T02:35:33;4.38;66.39
28175;SHT30;59417;44.788;10.334;2023-02-01T02:40:42;4.38;66.31
28175;SHT30;59417;44.788;10.334;2023-02-01T02:43:37;4.45;65.87
28175;SHT30;59417;44.788;10.334;2023-02-01T02:46:47;4.49;65.66
28175;SHT30;59417;44.788;10.334;2023-02-01T02:49:42;4.36;66.24
28175;SHT30;59417;44.788;10.334;2023-02-01T02:52:13;4.14;66.85
28175;SHT30;59417;44.788;10.334;2023-02-01T02:54:59;4.21;66.53
28175;SHT30;59417;44.788;10.334;2023-02-01T02:57:39;4.22;66.13
28175;SHT30;59417;44.788;10.334;2023-02-01T03:00:29;4.18;66.28
28175;SHT30;59417;44.788;10.334;2023-02-01T03:03:15;4.10;66.88
28175;SHT30;59417;44.788;10.334;2023-02-01T03:05:59;4.21;66.92
28175;SHT30;59417;44.788;10.334;2023-02-01T03:08:27;4.32;66.36
28175;SHT30;59417;44.788;10.334;2023-02-01T03:11:07;4.41;65.80
28175;SHT30;59417;44.788;10.334;2023-02-01T03:13:37;4.61;64.95
28175;SHT30;59417;44.788;10.334;2023-02-01T03:21:10;4.05;66.20
28175;SHT30;59417;44.788;10.334;2023-02-01T03:23:37;4.04;66.54
28175;SHT30;59417;44.788;10.334;2023-02-01T03:26:10;4.10;66.34
28175;SHT30;59417;44.788;10.334;2023-02-01T03:28:39;4.25;66.05
28175;SHT30;59417;44.788;10.334;2023-02-01T03:31:04;4.21;65.74
28175;SHT30;59417;44.788;10.334;2023-02-01T03:33:34;4.24;65.72
28175;SHT30;59417;44.788;10.334;2023-02-01T03:36:09;4.11;66.50
28175;SHT30;59417;44.788;10.334;2023-02-01T03:42:16;3.77;67.02
28175;SHT30;59417;44.788;10.334;2023-02-01T03:44:32;3.79;67.54
28175;SHT30;59417;44.788;10.334;2023-02-01T03:49:35;4.11;66.65
28175;SHT30;59417;44.788;10.334;2023-02-01T03:52:06;4.11;66.40
28175;SHT30;59417;44.788;10.334;2023-02-01T03:54:34;4.00;66.54
28175;SHT30;59417;44.788;10.334;2023-02-01T03:57:04;3.90;66.74
28175;SHT30;59417;44.788;10.334;2023-02-01T03:59:31;3.89;67.00
28175;SHT30;59417;44.788;10.334;2023-02-01T04:01:57;3.87;67.33
28175;SHT30;59417;44.788;10.334;2023-02-01T04:04:23;3.86;67.14
28175;SHT30;59417;44.788;10.334;2023-02-01T04:06:52;3.94;66.95
28175;SHT30;59417;44.788;10.334;2023-02-01T04:09:18;3.91;66.72
28175;SHT30;59417;44.788;10.334;2023-02-01T04:11:47;3.81;66.90
28175;SHT30;59417;44.788;10.334;2023-02-01T04:14:12;3.81;67.12
28175;SHT30;59417;44.788;10.334;2023-02-01T04:16:38;3.80;67.27
28175;SHT30;59417;44.788;10.334;2023-02-01T04:19:03;3.95;65.87
28175;SHT30;59417;44.788;10.334;2023-02-01T04:21:29;4.07;65.30
28175;SHT30;59417;44.788;10.334;2023-02-01T04:23:55;4.05;65.78
28175;SHT30;59417;44.788;10.334;2023-02-01T04:26:21;4.07;65.77
28175;SHT30;59417;44.788;10.334;2023-02-01T04:28:47;3.91;66.07
28175;SHT30;59417;44.788;10.334;2023-02-01T04:31:18;4.00;65.53
28175;SHT30;59417;44.788;10.334;2023-02-01T04:33:54;3.91;65.74
28175;SHT30;59417;44.788;10.334;2023-02-01T04:36:21;3.83;66.40
28175;SHT30;59417;44.788;10.334;2023-02-01T04:38:50;3.90;65.93
28175;SHT30;59417;44.788;10.334;2023-02-01T04:41:19;3.95;66.29
28175;SHT30;59417;44.788;10.334;2023-02-01T04:43:46;4.04;65.75
28175;SHT30;59417;44.788;10.334;2023-02-01T04:46:16;4.24;64.69
28175;SHT30;59417;44.788;10.334;2023-02-01T04:48:42;3.97;65.49
28175;SHT30;59417;44.788;10.334;2023-02-01T04:51:08;3.95;66.11
28175;SHT30;59417;44.788;10.334;2023-02-01T04:53:36;4.05;66.13
28175;SHT30;59417;44.788;10.334;2023-02-01T04:56:05;4.20;65.09
28175;SHT30;59417;44.788;10.334;2023-02-01T04:58:33;4.15;65.55
28175;SHT30;59417;44.788;10.334;2023-02-01T05:01:02;4.10;65.05
28175;SHT30;59417;44.788;10.334;2023-02-01T05:03:30;4.11;65.75
28175;SHT30;59417;44.788;10.334;2023-02-01T05:05:55;4.15;65.93
28175;SHT30;59417;44.788;10.334;2023-02-01T05:08:21;4.14;66.17
28175;SHT30;59417;44.788;10.334;2023-02-01T05:10:53;4.26;65.44
28175;SHT30;59417;44.788;10.334;2023-02-01T05:13:21;4.31;64.61
28175;SHT30;59417;44.788;10.334;2023-02-01T05:16:05;4.28;64.88
28175;SHT30;59417;44.788;10.334;2023-02-01T05:18:31;4.21;65.02
28175;SHT30;59417;44.788;10.334;2023-02-01T05:20:57;4.02;66.03
28175;SHT30;59417;44.788;10.334;2023-02-01T05:23:22;4.15;65.17
28175;SHT30;59417;44.788;10.334;2023-02-01T05:25:48;3.90;65.83
28175;SHT30;59417;44.788;10.334;2023-02-01T05:28:13;3.91;66.02
28175;SHT30;59417;44.788;10.334;2023-02-01T05:30:39;3.86;66.33
28175;SHT30;59417;44.788;10.334;2023-02-01T05:33:04;3.74;66.75
28175;SHT30;59417;44.788;10.334;2023-02-01T05:35:30;3.94;65.67
28175;SHT30;59417;44.788;10.334;2023-02-01T05:37:56;3.70;66.75
28175;SHT30;59417;44.788;10.334;2023-02-01T05:40:21;3.79;65.37
28175;SHT30;59417;44.788;10.334;2023-02-01T05:42:47;3.45;67.18
28175;SHT30;59417;44.788;10.334;2023-02-01T05:45:13;3.67;66.87
28175;SHT30;59417;44.788;10.334;2023-02-01T05:47:38;3.74;66.63
28175;SHT30;59417;44.788;10.334;2023-02-01T05:50:05;3.77;66.85
28175;SHT30;59417;44.788;10.334;2023-02-01T05:52:31;3.95;65.96
28175;SHT30;59417;44.788;10.334;2023-02-01T05:54:56;4.01;65.62
28175;SHT30;59417;44.788;10.334;2023-02-01T05:57:22;3.73;66.22
28175;SHT30;59417;44.788;10.334;2023-02-01T05:59:50;3.67;66.75
28175;SHT30;59417;44.788;10.334;2023-02-01T06:02:16;3.73;66.98
28175;SHT30;59417;44.788;10.334;2023-02-01T06:04:44;3.76;66.99
28175;SHT30;59417;44.788;10.334;2023-02-01T06:07:32;3.79;66.34
28175;SHT30;59417;44.788;10.334;2023-02-01T06:09:58;3.74;66.69
28175;SHT30;59417;44.788;10.334;2023-02-01T06:12:24;3.71;66.45
28175;SHT30;59417;44.788;10.334;2023-02-01T06:14:49;3.70;67.04
28175;SHT30;59417;44.788;10.334;2023-02-01T06:17:15;3.77;66.21
28175;SHT30;59417;44.788;10.334;2023-02-01T06:19:45;3.74;66.58
28175;SHT30;59417;44.788;10.334;2023-02-01T06:22:14;3.70;67.02
28175;SHT30;59417;44.788;10.334;2023-02-01T06:24:45;3.66;66.63
28175;SHT30;59417;44.788;10.334;2023-02-01T06:27:11;3.70;66.44
28175;SHT30;59417;44.788;10.334;2023-02-01T06:29:42;3.67;66.78
28175;SHT30;59417;44.788;10.334;2023-02-01T06:32:18;3.86;66.25
28175;SHT30;59417;44.788;10.334;2023-02-01T06:35:00;3.56;66.77
28175;SHT30;59417;44.788;10.334;2023-02-01T06:44:48;3.55;67.70
28175;SHT30;59417;44.788;10.334;2023-02-01T06:47:19;3.67;68.03
28175;SHT30;59417;44.788;10.334;2023-02-01T06:56:27;3.87;66.72
28175;SHT30;59417;44.788;10.334;2023-02-01T06:58:53;3.87;67.41
28175;SHT30;59417;44.788;10.334;2023-02-01T07:01:22;3.89;67.10
28175;SHT30;59417;44.788;10.334;2023-02-01T07:03:55;3.90;67.08
28175;SHT30;59417;44.788;10.334;2023-02-01T07:06:21;3.97;66.67
28175;SHT30;59417;44.788;10.334;2023-02-01T07:08:47;4.10;65.37
28175;SHT30;59417;44.788;10.334;2023-02-01T07:11:21;3.98;66.37
28175;SHT30;59417;44.788;10.334;2023-02-01T07:13:47;4.01;66.05
28175;SHT30;59417;44.788;10.334;2023-02-01T07:16:18;4.02;66.09
28175;SHT30;59417;44.788;10.334;2023-02-01T07:18:47;4.02;65.50
28175;SHT30;59417;44.788;10.334;2023-02-01T07:21:17;4.08;65.22
28175;SHT30;59417;44.788;10.334;2023-02-01T07:24:00;3.98;65.29
28175;SHT30;59417;44.788;10.334;2023-02-01T07:26:26;4.00;64.74
28175;SHT30;59417;44.788;10.334;2023-02-01T07:28:59;4.10;65.75
28175;SHT30;59417;44.788;10.334;2023-02-01T07:31:26;4.12;65.61
28175;SHT30;59417;44.788;10.334;2023-02-01T07:33:54;4.17;66.19
28175;SHT30;59417;44.788;10.334;2023-02-01T07:36:36;4.26;65.74
28175;SHT30;59417;44.788;10.334;2023-02-01T07:39:07;4.52;67.25
28175;SHT30;59417;44.788;10.334;2023-02-01T07:41:33;4.75;63.65
28175;SHT30;59417;44.788;10.334;2023-02-01T07:44:05;4.68;63.90
28175;SHT30;59417;44.788;10.334;2023-02-01T07:46:31;4.77;64.68
28175;SHT30;59417;44.788;10.334;2023-02-01T07:52:46;4.65;65.66
28175;SHT30;59417;44.788;10.334;2023-02-01T07:58:59;4.84;64.74
28175;SHT30;59417;44.788;10.334;2023-02-01T08:01:27;5.06;62.69
28175;SHT30;59417;44.788;10.334;2023-02-01T08:03:55;5.14;63.68
28175;SHT30;59417;44.788;10.334;2023-02-01T08:06:22;5.06;64.34
28175;SHT30;59417;44.788;10.334;2023-02-01T08:08:49;5.11;65.63
28175;SHT30;59417;44.788;10.334;2023-02-01T08:11:15;5.26;65.17
28175;SHT30;59417;44.788;10.334;2023-02-01T08:13:42;5.16;65.72
28175;SHT30;59417;44.788;10.334;2023-02-01T08:16:12;5.38;65.76
28175;SHT30;59417;44.788;10.334;2023-02-01T08:18:38;5.49;64.32
28175;SHT30;59417;44.788;10.334;2023-02-01T08:21:10;5.52;64.44
28175;SHT30;59417;44.788;10.334;2023-02-01T08:23:37;5.67;64.73
28175;SHT30;59417;44.788;10.334;2023-02-01T08:26:07;5.78;65.07
28175;SHT30;59417;44.788;10.334;2023-02-01T08:28:33;6.02;63.83
28175;SHT30;59417;44.788;10.334;2023-02-01T08:30:59;6.14;63.38
28175;SHT30;59417;44.788;10.334;2023-02-01T08:33:24;6.27;62.49
28175;SHT30;59417;44.788;10.334;2023-02-01T08:35:50;6.34;63.00
28175;SHT30;59417;44.788;10.334;2023-02-01T08:38:15;6.55;62.69
28175;SHT30;59417;44.788;10.334;2023-02-01T08:40:41;6.64;62.05
28175;SHT30;59417;44.788;10.334;2023-02-01T08:43:10;6.75;62.36
28175;SHT30;59417;44.788;10.334;2023-02-01T08:45:35;6.73;63.26
28175;SHT30;59417;44.788;10.334;2023-02-01T08:48:04;6.85;64.09
28175;SHT30;59417;44.788;10.334;2023-02-01T08:50:30;7.09;62.50
28175;SHT30;59417;44.788;10.334;2023-02-01T08:52:55;6.89;64.65
28175;SHT30;59417;44.788;10.334;2023-02-01T08:55:21;6.96;65.28
28175;SHT30;59417;44.788;10.334;2023-02-01T08:57:46;7.19;65.02
28175;SHT30;59417;44.788;10.334;2023-02-01T09:00:16;7.35;65.68
28175;SHT30;59417;44.788;10.334;2023-02-01T09:02:43;7.42;65.60
28175;SHT30;59417;44.788;10.334;2023-02-01T09:05:09;7.57;64.89
28175;SHT30;59417;44.788;10.334;2023-02-01T09:07:36;7.59;64.42
28175;SHT30;59417;44.788;10.334;2023-02-01T09:10:02;7.71;65.64
28175;SHT30;59417;44.788;10.334;2023-02-01T09:12:33;7.68;66.30
28175;SHT30;59417;44.788;10.334;2023-02-01T09:15:01;7.87;66.65
28175;SHT30;59417;44.788;10.334;2023-02-01T09:17:27;7.81;67.66
28175;SHT30;59417;44.788;10.334;2023-02-01T09:19:53;7.81;68.43
28175;SHT30;59417;44.788;10.334;2023-02-01T09:22:18;7.74;68.32
28175;SHT30;59417;44.788;10.334;2023-02-01T09:24:44;7.60;68.91
28175;SHT30;59417;44.788;10.334;2023-02-01T09:27:10;7.63;69.01
28175;SHT30;59417;44.788;10.334;2023-02-01T09:29:35;7.50;69.48
28175;SHT30;59417;44.788;10.334;2023-02-01T09:32:01;7.29;70.35
28175;SHT30;59417;44.788;10.334;2023-02-01T09:34:26;7.51;70.00
28175;SHT30;59417;44.788;10.334;2023-02-01T09:36:52;7.36;69.92
28175;SHT30;59417;44.788;10.334;2023-02-01T09:39:18;7.51;70.13
28175;SHT30;59417;44.788;10.334;2023-02-01T09:47:14;7.56;69.44
28175;SHT30;59417;44.788;10.334;2023-02-01T09:49:48;7.61;69.43
28175;SHT30;59417;44.788;10.334;2023-02-01T09:52:31;7.57;69.65
28175;SHT30;59417;44.788;10.334;2023-02-01T09:55:11;7.60;69.98
28175;SHT30;59417;44.788;10.334;2023-02-01T10:00:23;7.80;69.46
28175;SHT30;59417;44.788;10.334;2023-02-01T10:02:51;7.81;69.13
28175;SHT30;59417;44.788;10.334;2023-02-01T10:08:31;7.90;68.96
28175;SHT30;59417;44.788;10.334;2023-02-01T10:11:16;8.08;68.95
28175;SHT30;59417;44.788;10.334;2023-02-01T10:14:03;8.07;69.60
28175;SHT30;59417;44.788;10.334;2023-02-01T10:22:40;8.35;68.44
28175;SHT30;59417;44.788;10.334;2023-02-01T10:25:14;8.35;68.29
28175;SHT30;59417;44.788;10.334;2023-02-01T10:27:42;8.53;67.44
28175;SHT30;59417;44.788;10.334;2023-02-01T10:30:25;8.57;68.14
28175;SHT30;59417;44.788;10.334;2023-02-01T10:33:01;8.67;67.86
28175;SHT30;59417;44.788;10.334;2023-02-01T10:35:34;8.86;67.64
28175;SHT30;59417;44.788;10.334;2023-02-01T10:38:12;9.10;67.11
28175;SHT30;59417;44.788;10.334;2023-02-01T10:40:42;9.23;66.40
28175;SHT30;59417;44.788;10.334;2023-02-01T10:43:09;9.35;66.09
28175;SHT30;59417;44.788;10.334;2023-02-01T10:45:37;9.52;66.33
28175;SHT30;59417;44.788;10.334;2023-02-01T10:48:05;9.61;65.60
28175;SHT30;59417;44.788;10.334;2023-02-01T10:50:57;9.82;65.17
28175;SHT30;59417;44.788;10.334;2023-02-01T10:55:53;10.10;64.51
28175;SHT30;59417;44.788;10.334;2023-02-01T11:00:49;10.26;64.05
28175;SHT30;59417;44.788;10.334;2023-02-01T11:06:03;10.47;64.56
28175;SHT30;59417;44.788;10.334;2023-02-01T11:08:42;10.56;63.92
28175;SHT30;59417;44.788;10.334;2023-02-01T11:11:09;10.65;64.34
28175;SHT30;59417;44.788;10.334;2023-02-01T11:13:39;10.75;64.13
28175;SHT30;59417;44.788;10.334;2023-02-01T11:16:05;10.65;63.62
28175;SHT30;59417;44.788;10.334;2023-02-01T11:18:37;10.57;65.14
28175;SHT30;59417;44.788;10.334;2023-02-01T11:21:06;10.59;64.93
28175;SHT30;59417;44.788;10.334;2023-02-01T11:23:32;10.57;64.52
28175;SHT30;59417;44.788;10.334;2023-02-01T11:26:00;10.61;65.02
28175;SHT30;59417;44.788;10.334;2023-02-01T11:28:31;10.48;64.83
28175;SHT30;59417;44.788;10.334;2023-02-01T11:31:05;10.61;64.57
28175;SHT30;59417;44.788;10.334;2023-02-01T11:33:36;10.80;64.64
28175;SHT30;59417;44.788;10.334;2023-02-01T11:36:16;10.95;63.74
28175;SHT30;59417;44.788;10.334;2023-02-01T11:41:43;11.08;64.63
28175;SHT30;59417;44.788;10.334;2023-02-01T11:44:32;10.96;64.13
28175;SHT30;59417;44.788;10.334;2023-02-01T11:49:46;10.67;64.81
28175;SHT30;59417;44.788;10.334;2023-02-01T12:02:49;11.32;63.47
28175;SHT30;59417;44.788;10.334;2023-02-01T12:10:53;11.46;63.27
28175;SHT30;59417;44.788;10.334;2023-02-01T12:13:26;11.26;63.71
28175;SHT30;59417;44.788;10.334;2023-02-01T12:21:19;11.59;62.76
28175;SHT30;59417;44.788;10.334;2023-02-01T12:24:07;11.36;63.10
28175;SHT30;59417;44.788;10.334;2023-02-01T12:38:49;11.55;63.36
28175;SHT30;59417;44.788;10.334;2023-02-01T12:44:50;11.78;62.32
28175;SHT30;59417;44.788;10.334;2023-02-01T12:47:31;11.83;62.46
28175;SHT30;59417;44.788;10.334;2023-02-01T12:50:03;11.80;62.50
28175;SHT30;59417;44.788;10.334;2023-02-01T12:52:44;11.69;62.23
28175;SHT30;59417;44.788;10.334;2023-02-01T12:55:24;11.83;62.61
28175;SHT30;59417;44.788;10.334;2023-02-01T12:58:06;12.08;61.82
28175;SHT30;59417;44.788;10.334;2023-02-01T13:06:24;12.01;61.78
28175;SHT30;59417;44.788;10.334;2023-02-01T13:11:30;12.21;62.67
28175;SHT30;59417;44.788;10.334;2023-02-01T13:14:05;12.35;61.53
28175;SHT30;59417;44.788;10.334;2023-02-01T13:16:48;12.51;60.66
28175;SHT30;59417;44.788;10.334;2023-02-01T13:19:20;12.68;60.39
28175;SHT30;59417;44.788;10.334;2023-02-01T13:22:30;12.96;59.49
28175;SHT30;59417;44.788;10.334;2023-02-01T13:24:57;13.00;59.89
28175;SHT30;59417;44.788;10.334;2023-02-01T13:27:26;13.03;59.83
28175;SHT30;59417;44.788;10.334;2023-02-01T13:29:57;13.17;59.88
28175;SHT30;59417;44.788;10.334;2023-02-01T13:41:28;13.61;58.91
28175;SHT30;59417;44.788;10.334;2023-02-01T13:44:03;13.71;58.29
28175;SHT30;59417;44.788;10.334;2023-02-01T13:46:40;13.86;58.24
28175;SHT30;59417;44.788;10.334;2023-02-01T13:49:59;13.89;58.20
28175;SHT30;59417;44.788;10.334;2023-02-01T13:52:36;13.89;58.43
28175;SHT30;59417;44.788;10.334;2023-02-01T13:57:45;13.94;58.31
28175;SHT30;59417;44.788;10.334;2023-02-01T14:00:33;13.98;58.81
28175;SHT30;59417;44.788;10.334;2023-02-01T14:10:48;14.09;57.95
28175;SHT30;59417;44.788;10.334;2023-02-01T14:13:34;14.05;58.28
28175;SHT30;59417;44.788;10.334;2023-02-01T14:21:32;14.13;55.90
28175;SHT30;59417;44.788;10.334;2023-02-01T14:24:13;13.95;56.75
28175;SHT30;59417;44.788;10.334;2023-02-01T14:26:43;13.68;57.04
28175;SHT30;59417;44.788;10.334;2023-02-01T14:32:17;13.64;57.23
28175;SHT30;59417;44.788;10.334;2023-02-01T14:44:50;13.86;57.83
28175;SHT30;59417;44.788;10.334;2023-02-01T14:55:41;13.44;60.22
28175;SHT30;59417;44.788;10.334;2023-02-01T15:04:10;13.21;60.62
28175;SHT30;59417;44.788;10.334;2023-02-01T15:06:51;13.19;60.87
28175;SHT30;59417;44.788;10.334;2023-02-01T15:09:24;13.04;60.24
28175;SHT30;59417;44.788;10.334;2023-02-01T15:19:58;13.06;61.14
28175;SHT30;59417;44.788;10.334;2023-02-01T15:22:26;13.03;61.56
28175;SHT30;59417;44.788;10.334;2023-02-01T15:24:57;12.89;62.39
28175;SHT30;59417;44.788;10.334;2023-02-01T15:27:24;12.82;62.87
28175;SHT30;59417;44.788;10.334;2023-02-01T15:29:49;12.77;62.95
28175;SHT30;59417;44.788;10.334;2023-02-01T15:32:36;12.68;62.62
28175;SHT30;59417;44.788;10.334;2023-02-01T15:35:33;12.68;62.64
28175;SHT30;59417;44.788;10.334;2023-02-01T15:43:24;12.62;63.87
28175;SHT30;59417;44.788;10.334;2023-02-01T15:45:50;12.59;63.85
28175;SHT30;59417;44.788;10.334;2023-02-01T15:48:23;12.56;63.95
28175;SHT30;59417;44.788;10.334;2023-02-01T15:50:53;12.56;64.03
28175;SHT30;59417;44.788;10.334;2023-02-01T15:53:23;12.52;64.13
28175;SHT30;59417;44.788;10.334;2023-02-01T15:55:55;12.46;64.47
28175;SHT30;59417;44.788;10.334;2023-02-01T15:58:22;12.42;64.57
28175;SHT30;59417;44.788;10.334;2023-02-01T16:01:00;12.32;64.55
28175;SHT30;59417;44.788;10.334;2023-02-01T16:03:37;12.21;64.87
28175;SHT30;59417;44.788;10.334;2023-02-01T16:06:09;12.14;65.25
28175;SHT30;59417;44.788;10.334;2023-02-01T16:08:36;12.08;65.70
28175;SHT30;59417;44.788;10.334;2023-02-01T16:11:24;12.01;65.65
28175;SHT30;59417;44.788;10.334;2023-02-01T16:13:53;11.88;66.02
28175;SHT30;59417;44.788;10.334;2023-02-01T16:16:19;11.88;66.17
28175;SHT30;59417;44.788;10.334;2023-02-01T16:18:44;11.93;65.50
28175;SHT30;59417;44.788;10.334;2023-02-01T16:21:13;11.55;66.48
28175;SHT30;59417;44.788;10.334;2023-02-01T16:23:39;11.38;67.18
28175;SHT30;59417;44.788;10.334;2023-02-01T16:26:07;11.32;67.55
28175;SHT30;59417;44.788;10.334;2023-02-01T16:28:33;11.27;67.70
28175;SHT30;59417;44.788;10.334;2023-02-01T16:31:01;11.30;67.83
28175;SHT30;59417;44.788;10.334;2023-02-01T16:33:28;11.22;67.99
28175;SHT30;59417;44.788;10.334;2023-02-01T16:35:55;11.19;68.09
28175;SHT30;59417;44.788;10.334;2023-02-01T16:38:33;11.19;68.06
28175;SHT30;59417;44.788;10.334;2023-02-01T16:41:00;11.08;68.20
28175;SHT30;59417;44.788;10.334;2023-02-01T16:43:31;11.06;68.41
28175;SHT30;59417;44.788;10.334;2023-02-01T16:45:59;11.06;68.29
28175;SHT30;59417;44.788;10.334;2023-02-01T16:48:30;10.99;68.34
28175;SHT30;59417;44.788;10.334;2023-02-01T16:50:59;10.87;68.75
28175;SHT30;59417;44.788;10.334;2023-02-01T16:53:30;10.82;68.87
28175;SHT30;59417;44.788;10.334;2023-02-01T16:55:58;10.74;69.12
28175;SHT30;59417;44.788;10.334;2023-02-01T16:58:25;10.64;69.38
28175;SHT30;59417;44.788;10.334;2023-02-01T17:00:55;10.50;69.95
28175;SHT30;59417;44.788;10.334;2023-02-01T17:03:33;10.51;69.97
28175;SHT30;59417;44.788;10.334;2023-02-01T17:05:59;10.47;70.25
28175;SHT30;59417;44.788;10.334;2023-02-01T17:08:31;10.52;69.99
28175;SHT30;59417;44.788;10.334;2023-02-01T17:10:57;10.43;70.16
28175;SHT30;59417;44.788;10.334;2023-02-01T17:13:25;10.50;69.96
28175;SHT30;59417;44.788;10.334;2023-02-01T17:16:13;10.29;70.33
28175;SHT30;59417;44.788;10.334;2023-02-01T17:18:44;10.19;70.65
28175;SHT30;59417;44.788;10.334;2023-02-01T17:21:14;10.19;70.67
28175;SHT30;59417;44.788;10.334;2023-02-01T17:23:48;10.09;70.62
28175;SHT30;59417;44.788;10.334;2023-02-01T17:26:14;9.96;71.53
28175;SHT30;59417;44.788;10.334;2023-02-01T17:28:48;9.95;71.52
28175;SHT30;59417;44.788;10.334;2023-02-01T17:31:14;10.03;71.07
28175;SHT30;59417;44.788;10.334;2023-02-01T17:33:44;9.83;72.06
28175;SHT30;59417;44.788;10.334;2023-02-01T17:36:16;9.99;71.24
28175;SHT30;59417;44.788;10.334;2023-02-01T17:38:45;9.81;71.64
28175;SHT30;59417;44.788;10.334;2023-02-01T17:41:19;9.78;71.92
28175;SHT30;59417;44.788;10.334;2023-02-01T17:43:45;9.68;71.62
28175;SHT30;59417;44.788;10.334;2023-02-01T17:46:16;9.58;72.07
28175;SHT30;59417;44.788;10.334;2023-02-01T17:48:52;9.52;72.25
28175;SHT30;59417;44.788;10.334;2023-02-01T17:51:20;9.51;72.51
28175;SHT30;59417;44.788;10.334;2023-02-01T17:53:46;9.58;72.35
28175;SHT30;59417;44.788;10.334;2023-02-01T17:56:18;9.51;71.71
28175;SHT30;59417;44.788;10.334;2023-02-01T17:58:45;9.39;72.43
28175;SHT30;59417;44.788;10.334;2023-02-01T18:01:13;9.37;72.54
28175;SHT30;59417;44.788;10.334;2023-02-01T18:03:48;9.28;72.75
28175;SHT30;59417;44.788;10.334;2023-02-01T18:06:20;9.35;72.24
28175;SHT30;59417;44.788;10.334;2023-02-01T18:08:46;9.27;73.33
28175;SHT30;59417;44.788;10.334;2023-02-01T18:11:14;9.25;73.06
28175;SHT30;59417;44.788;10.334;2023-02-01T18:13:40;9.28;72.56
28175;SHT30;59417;44.788;10.334;2023-02-01T18:16:23;9.15;73.24
28175;SHT30;59417;44.788;10.334;2023-02-01T18:18:52;9.11;73.31
28175;SHT30;59417;44.788;10.334;2023-02-01T18:21:20;9.11;73.38
28175;SHT30;59417;44.788;10.334;2023-02-01T18:23:47;9.13;73.32
28175;SHT30;59417;44.788;10.334;2023-02-01T18:26:15;9.07;73.46
28175;SHT30;59417;44.788;10.334;2023-02-01T18:28:43;9.07;73.41
28175;SHT30;59417;44.788;10.334;2023-02-01T18:31:22;8.97;73.68
28175;SHT30;59417;44.788;10.334;2023-02-01T18:33:49;8.93;73.71
28175;SHT30;59417;44.788;10.334;2023-02-01T18:36:14;9.01;73.49
28175;SHT30;59417;44.788;10.334;2023-02-01T18:38:43;8.89;73.70
28175;SHT30;59417;44.788;10.334;2023-02-01T18:41:13;8.76;74.15
28175;SHT30;59417;44.788;10.334;2023-02-01T18:43:45;8.89;74.03
28175;SHT30;59417;44.788;10.334;2023-02-01T18:46:11;9.04;73.55
28175;SHT30;59417;44.788;10.334;2023-02-01T18:48:37;9.07;72.93
28175;SHT30;59417;44.788;10.334;2023-02-01T18:51:03;9.14;72.92
28175;SHT30;59417;44.788;10.334;2023-02-01T18:53:29;9.15;73.01
28175;SHT30;59417;44.788;10.334;2023-02-01T18:55:58;9.27;72.41